Aviation Digital Data Service (ADDS)

Output produced by METARs form (1548 UTC 24 September 2017)
found at http://www.aviationweather.gov/adds/metars/
 
KDOV 241458Z 04008KT 10SM CLR 27/17 A3007 RMK AO2A SLP186 50001 $
TAF KDOV 240800Z 2408/2514 VRB06KT 9999 FEW035 QNH2998INS TX27/2419Z TN17/2508Z